sensor_id;sensor_type;location;lat;lon;timestamp;temperature;humidity
55203;DHT22;41077;52.956;6.796;2022-08-07T00:00:11;12.60;99.90
55203;DHT22;41077;52.956;6.796;2022-08-07T00:02:37;12.60;99.90
55203;DHT22;41077;52.956;6.796;2022-08-07T00:05:03;12.60;99.90
55203;DHT22;41077;52.956;6.796;2022-08-07T00:07:28;12.50;99.90
55203;DHT22;41077;52.956;6.796;2022-08-07T00:09:54;12.50;99.90
55203;DHT22;41077;52.956;6.796;2022-08-07T00:12:20;12.50;99.90
55203;DHT22;41077;52.956;6.796;2022-08-07T00:14:45;12.50;99.90
55203;DHT22;41077;52.956;6.796;2022-08-07T00:17:11;12.40;99.90
55203;DHT22;41077;52.956;6.796;2022-08-07T00:19:37;12.40;99.90
55203;DHT22;41077;52.956;6.796;2022-08-07T00:22:03;12.30;99.90
55203;DHT22;41077;52.956;6.796;2022-08-07T00:24:29;12.30;99.90
55203;DHT22;41077;52.956;6.796;2022-08-07T00:26:54;12.30;99.90
55203;DHT22;41077;52.956;6.796;2022-08-07T00:29:20;12.30;99.90
55203;DHT22;41077;52.956;6.796;2022-08-07T00:31:53;12.30;99.90
55203;DHT22;41077;52.956;6.796;2022-08-07T00:34:19;12.30;99.90
55203;DHT22;41077;52.956;6.796;2022-08-07T00:36:45;12.30;99.90
55203;DHT22;41077;52.956;6.796;2022-08-07T00:39:11;12.30;99.90
55203;DHT22;41077;52.956;6.796;2022-08-07T00:41:38;12.30;99.90
55203;DHT22;41077;52.956;6.796;2022-08-07T00:44:04;12.20;99.90
55203;DHT22;41077;52.956;6.796;2022-08-07T00:46:30;12.20;99.90
55203;DHT22;41077;52.956;6.796;2022-08-07T00:48:56;12.20;99.90
55203;DHT22;41077;52.956;6.796;2022-08-07T00:51:27;12.20;99.90
55203;DHT22;41077;52.956;6.796;2022-08-07T00:53:53;12.20;99.90
55203;DHT22;41077;52.956;6.796;2022-08-07T00:56:19;12.20;99.90
55203;DHT22;41077;52.956;6.796;2022-08-07T00:58:46;12.10;99.90
55203;DHT22;41077;52.956;6.796;2022-08-07T01:01:12;12.10;99.90
55203;DHT22;41077;52.956;6.796;2022-08-07T01:03:38;12.10;99.90
55203;DHT22;41077;52.956;6.796;2022-08-07T01:06:04;12.10;99.90
55203;DHT22;41077;52.956;6.796;2022-08-07T01:08:30;12.10;99.90
55203;DHT22;41077;52.956;6.796;2022-08-07T01:10:56;12.10;99.90
55203;DHT22;41077;52.956;6.796;2022-08-07T01:13:22;12.10;99.90
55203;DHT22;41077;52.956;6.796;2022-08-07T01:15:49;12.10;99.90
55203;DHT22;41077;52.956;6.796;2022-08-07T01:18:15;12.10;99.90
55203;DHT22;41077;52.956;6.796;2022-08-07T01:20:45;12.00;99.90
55203;DHT22;41077;52.956;6.796;2022-08-07T01:23:12;12.10;99.90
55203;DHT22;41077;52.956;6.796;2022-08-07T01:25:39;12.10;99.90
55203;DHT22;41077;52.956;6.796;2022-08-07T01:28:05;12.10;99.90
55203;DHT22;41077;52.956;6.796;2022-08-07T01:30:31;12.00;99.90
55203;DHT22;41077;52.956;6.796;2022-08-07T01:32:58;12.00;99.90
55203;DHT22;41077;52.956;6.796;2022-08-07T01:35:24;12.00;99.90
55203;DHT22;41077;52.956;6.796;2022-08-07T01:37:50;12.00;99.90
55203;DHT22;41077;52.956;6.796;2022-08-07T01:40:18;12.00;99.90
55203;DHT22;41077;52.956;6.796;2022-08-07T01:42:45;12.00;99.90
55203;DHT22;41077;52.956;6.796;2022-08-07T01:45:11;12.00;99.90
55203;DHT22;41077;52.956;6.796;2022-08-07T01:47:37;11.90;99.90
55203;DHT22;41077;52.956;6.796;2022-08-07T01:50:04;11.90;99.90
55203;DHT22;41077;52.956;6.796;2022-08-07T01:52:32;12.00;99.90
55203;DHT22;41077;52.956;6.796;2022-08-07T01:54:59;12.00;99.90
55203;DHT22;41077;52.956;6.796;2022-08-07T01:57:31;11.90;99.90
55203;DHT22;41077;52.956;6.796;2022-08-07T02:00:08;11.90;99.90
55203;DHT22;41077;52.956;6.796;2022-08-07T02:02:55;12.00;99.90
55203;DHT22;41077;52.956;6.796;2022-08-07T02:05:25;11.90;99.90
55203;DHT22;41077;52.956;6.796;2022-08-07T02:07:53;12.00;99.90
55203;DHT22;41077;52.956;6.796;2022-08-07T02:10:22;12.00;99.90
55203;DHT22;41077;52.956;6.796;2022-08-07T02:12:50;12.00;99.90
55203;DHT22;41077;52.956;6.796;2022-08-07T02:15:22;12.00;99.90
55203;DHT22;41077;52.956;6.796;2022-08-07T02:17:48;12.00;99.90
55203;DHT22;41077;52.956;6.796;2022-08-07T02:20:17;11.90;99.90
55203;DHT22;41077;52.956;6.796;2022-08-07T02:22:43;12.00;99.90
55203;DHT22;41077;52.956;6.796;2022-08-07T02:25:12;12.00;99.90
55203;DHT22;41077;52.956;6.796;2022-08-07T02:27:41;12.00;99.90
55203;DHT22;41077;52.956;6.796;2022-08-07T02:30:08;11.90;99.90
55203;DHT22;41077;52.956;6.796;2022-08-07T02:32:35;11.90;99.90
55203;DHT22;41077;52.956;6.796;2022-08-07T02:35:03;11.90;99.90
55203;DHT22;41077;52.956;6.796;2022-08-07T02:37:31;11.90;99.90
55203;DHT22;41077;52.956;6.796;2022-08-07T02:39:58;11.90;99.90
55203;DHT22;41077;52.956;6.796;2022-08-07T02:42:25;11.90;99.90
55203;DHT22;41077;52.956;6.796;2022-08-07T02:44:52;11.90;99.90
55203;DHT22;41077;52.956;6.796;2022-08-07T02:47:18;11.80;99.90
55203;DHT22;41077;52.956;6.796;2022-08-07T02:49:44;11.80;99.90
55203;DHT22;41077;52.956;6.796;2022-08-07T02:52:14;11.70;99.90
55203;DHT22;41077;52.956;6.796;2022-08-07T02:54:42;11.80;99.90
55203;DHT22;41077;52.956;6.796;2022-08-07T02:57:11;11.70;99.90
55203;DHT22;41077;52.956;6.796;2022-08-07T02:59:40;11.70;99.90
55203;DHT22;41077;52.956;6.796;2022-08-07T03:02:11;11.70;99.90
55203;DHT22;41077;52.956;6.796;2022-08-07T03:04:40;11.70;99.90
55203;DHT22;41077;52.956;6.796;2022-08-07T03:07:07;11.70;99.90
55203;DHT22;41077;52.956;6.796;2022-08-07T03:09:34;11.70;99.90
55203;DHT22;41077;52.956;6.796;2022-08-07T03:12:02;11.70;99.90
55203;DHT22;41077;52.956;6.796;2022-08-07T03:14:28;11.70;99.90
55203;DHT22;41077;52.956;6.796;2022-08-07T03:16:55;11.70;99.90
55203;DHT22;41077;52.956;6.796;2022-08-07T03:19:21;11.80;99.90
55203;DHT22;41077;52.956;6.796;2022-08-07T03:21:49;11.80;99.90
55203;DHT22;41077;52.956;6.796;2022-08-07T03:24:15;11.80;99.90
55203;DHT22;41077;52.956;6.796;2022-08-07T03:26:41;11.80;99.90
55203;DHT22;41077;52.956;6.796;2022-08-07T03:29:11;11.80;99.90
55203;DHT22;41077;52.956;6.796;2022-08-07T03:31:38;11.80;99.90
55203;DHT22;41077;52.956;6.796;2022-08-07T03:34:07;11.70;99.90
55203;DHT22;41077;52.956;6.796;2022-08-07T03:36:34;11.80;99.90
55203;DHT22;41077;52.956;6.796;2022-08-07T03:39:19;11.70;99.90
55203;DHT22;41077;52.956;6.796;2022-08-07T03:41:45;11.70;99.90
55203;DHT22;41077;52.956;6.796;2022-08-07T03:44:11;11.70;99.90
55203;DHT22;41077;52.956;6.796;2022-08-07T03:46:37;11.70;99.90
55203;DHT22;41077;52.956;6.796;2022-08-07T03:49:07;11.70;99.90
55203;DHT22;41077;52.956;6.796;2022-08-07T03:51:33;11.70;99.90
55203;DHT22;41077;52.956;6.796;2022-08-07T03:53:59;11.60;99.90
55203;DHT22;41077;52.956;6.796;2022-08-07T03:56:26;11.60;99.90
55203;DHT22;41077;52.956;6.796;2022-08-07T03:58:52;11.50;99.90
55203;DHT22;41077;52.956;6.796;2022-08-07T04:01:19;11.40;99.90
55203;DHT22;41077;52.956;6.796;2022-08-07T04:03:45;11.30;99.90
55203;DHT22;41077;52.956;6.796;2022-08-07T04:06:11;11.30;99.90
55203;DHT22;41077;52.956;6.796;2022-08-07T04:08:39;11.20;99.90
55203;DHT22;41077;52.956;6.796;2022-08-07T04:11:07;11.10;99.90
55203;DHT22;41077;52.956;6.796;2022-08-07T04:13:34;11.10;99.90
55203;DHT22;41077;52.956;6.796;2022-08-07T04:16:00;11.10;99.90
55203;DHT22;41077;52.956;6.796;2022-08-07T04:18:26;11.00;99.90
55203;DHT22;41077;52.956;6.796;2022-08-07T04:20:52;11.00;99.90
55203;DHT22;41077;52.956;6.796;2022-08-07T04:23:19;11.10;99.90
55203;DHT22;41077;52.956;6.796;2022-08-07T04:25:45;11.10;99.90
55203;DHT22;41077;52.956;6.796;2022-08-07T04:28:11;11.10;99.90
55203;DHT22;41077;52.956;6.796;2022-08-07T04:30:38;11.10;99.90
55203;DHT22;41077;52.956;6.796;2022-08-07T04:33:06;11.10;99.90
55203;DHT22;41077;52.956;6.796;2022-08-07T04:35:33;11.10;99.90
55203;DHT22;41077;52.956;6.796;2022-08-07T04:37:58;11.10;99.90
55203;DHT22;41077;52.956;6.796;2022-08-07T04:40:24;11.10;99.90
55203;DHT22;41077;52.956;6.796;2022-08-07T04:42:50;11.20;99.90
55203;DHT22;41077;52.956;6.796;2022-08-07T04:45:16;11.20;99.90
55203;DHT22;41077;52.956;6.796;2022-08-07T04:50:34;11.30;99.90
55203;DHT22;41077;52.956;6.796;2022-08-07T04:53:09;11.30;99.90
55203;DHT22;41077;52.956;6.796;2022-08-07T04:56:29;11.40;99.90
55203;DHT22;41077;52.956;6.796;2022-08-07T04:58:39;11.40;99.90
55203;DHT22;41077;52.956;6.796;2022-08-07T05:04:21;11.50;99.90
55203;DHT22;41077;52.956;6.796;2022-08-07T05:07:16;11.50;99.90
55203;DHT22;41077;52.956;6.796;2022-08-07T05:09:55;11.60;99.90
55203;DHT22;41077;52.956;6.796;2022-08-07T05:12:27;11.60;99.90
55203;DHT22;41077;52.956;6.796;2022-08-07T05:15:01;11.70;99.90
55203;DHT22;41077;52.956;6.796;2022-08-07T05:17:47;11.80;99.90
55203;DHT22;41077;52.956;6.796;2022-08-07T05:20:17;11.80;99.90
55203;DHT22;41077;52.956;6.796;2022-08-07T05:22:46;11.90;99.90
55203;DHT22;41077;52.956;6.796;2022-08-07T05:25:15;11.90;99.90
55203;DHT22;41077;52.956;6.796;2022-08-07T05:27:42;12.00;99.90
55203;DHT22;41077;52.956;6.796;2022-08-07T05:30:10;12.00;99.90
55203;DHT22;41077;52.956;6.796;2022-08-07T05:32:37;12.10;99.90
55203;DHT22;41077;52.956;6.796;2022-08-07T05:35:05;12.20;99.90
55203;DHT22;41077;52.956;6.796;2022-08-07T05:37:31;12.30;99.90
55203;DHT22;41077;52.956;6.796;2022-08-07T05:39:58;12.40;99.90
55203;DHT22;41077;52.956;6.796;2022-08-07T05:42:25;12.50;99.90
55203;DHT22;41077;52.956;6.796;2022-08-07T05:44:51;12.60;99.90
55203;DHT22;41077;52.956;6.796;2022-08-07T05:47:19;12.60;99.90
55203;DHT22;41077;52.956;6.796;2022-08-07T05:49:50;12.70;99.90
55203;DHT22;41077;52.956;6.796;2022-08-07T05:52:18;12.80;99.90
55203;DHT22;41077;52.956;6.796;2022-08-07T05:54:44;12.90;99.90
55203;DHT22;41077;52.956;6.796;2022-08-07T05:57:11;12.90;99.90
55203;DHT22;41077;52.956;6.796;2022-08-07T05:59:39;13.00;99.90
55203;DHT22;41077;52.956;6.796;2022-08-07T06:02:06;13.10;99.90
55203;DHT22;41077;52.956;6.796;2022-08-07T06:04:36;13.20;99.90
55203;DHT22;41077;52.956;6.796;2022-08-07T06:07:04;13.30;99.90
55203;DHT22;41077;52.956;6.796;2022-08-07T06:09:33;13.40;99.90
55203;DHT22;41077;52.956;6.796;2022-08-07T06:11:59;13.50;99.90
55203;DHT22;41077;52.956;6.796;2022-08-07T06:14:25;13.60;99.90
55203;DHT22;41077;52.956;6.796;2022-08-07T06:16:51;13.70;99.90
55203;DHT22;41077;52.956;6.796;2022-08-07T06:19:18;13.80;99.90
55203;DHT22;41077;52.956;6.796;2022-08-07T06:21:47;14.00;99.90
55203;DHT22;41077;52.956;6.796;2022-08-07T06:24:13;14.00;99.90
55203;DHT22;41077;52.956;6.796;2022-08-07T06:26:40;14.10;99.90
55203;DHT22;41077;52.956;6.796;2022-08-07T06:29:06;14.20;99.90
55203;DHT22;41077;52.956;6.796;2022-08-07T06:31:32;14.30;99.90
55203;DHT22;41077;52.956;6.796;2022-08-07T06:33:58;14.40;99.90
55203;DHT22;41077;52.956;6.796;2022-08-07T06:36:23;14.50;99.90
55203;DHT22;41077;52.956;6.796;2022-08-07T06:38:52;14.60;99.90
55203;DHT22;41077;52.956;6.796;2022-08-07T06:41:29;14.60;99.90
55203;DHT22;41077;52.956;6.796;2022-08-07T06:43:56;14.80;99.90
55203;DHT22;41077;52.956;6.796;2022-08-07T06:46:23;14.90;99.90
55203;DHT22;41077;52.956;6.796;2022-08-07T06:48:48;14.90;99.90
55203;DHT22;41077;52.956;6.796;2022-08-07T06:51:20;15.00;99.90
55203;DHT22;41077;52.956;6.796;2022-08-07T06:53:47;15.20;99.90
55203;DHT22;41077;52.956;6.796;2022-08-07T06:56:14;15.20;99.90
55203;DHT22;41077;52.956;6.796;2022-08-07T06:58:42;15.30;99.90
55203;DHT22;41077;52.956;6.796;2022-08-07T07:01:11;15.40;99.90
55203;DHT22;41077;52.956;6.796;2022-08-07T07:03:39;15.40;99.90
55203;DHT22;41077;52.956;6.796;2022-08-07T07:06:09;15.50;99.90
55203;DHT22;41077;52.956;6.796;2022-08-07T07:08:35;15.60;99.90
55203;DHT22;41077;52.956;6.796;2022-08-07T07:11:03;15.70;99.90
55203;DHT22;41077;52.956;6.796;2022-08-07T07:13:37;15.90;99.90
55203;DHT22;41077;52.956;6.796;2022-08-07T07:16:12;16.00;99.90
55203;DHT22;41077;52.956;6.796;2022-08-07T07:18:47;16.20;99.90
55203;DHT22;41077;52.956;6.796;2022-08-07T07:21:21;16.20;99.90
55203;DHT22;41077;52.956;6.796;2022-08-07T07:23:48;16.20;99.90
55203;DHT22;41077;52.956;6.796;2022-08-07T07:26:17;16.30;99.90
55203;DHT22;41077;52.956;6.796;2022-08-07T07:28:50;16.40;99.90
55203;DHT22;41077;52.956;6.796;2022-08-07T07:31:34;16.50;99.90
55203;DHT22;41077;52.956;6.796;2022-08-07T07:34:06;16.60;99.90
55203;DHT22;41077;52.956;6.796;2022-08-07T07:36:33;16.70;99.90
55203;DHT22;41077;52.956;6.796;2022-08-07T07:39:02;16.80;99.90
55203;DHT22;41077;52.956;6.796;2022-08-07T07:41:29;16.90;99.90
55203;DHT22;41077;52.956;6.796;2022-08-07T07:43:57;17.00;99.90
55203;DHT22;41077;52.956;6.796;2022-08-07T07:46:25;17.10;99.90
55203;DHT22;41077;52.956;6.796;2022-08-07T07:48:52;17.20;99.90
55203;DHT22;41077;52.956;6.796;2022-08-07T07:51:20;17.30;99.90
55203;DHT22;41077;52.956;6.796;2022-08-07T07:53:47;17.30;99.90
55203;DHT22;41077;52.956;6.796;2022-08-07T07:56:13;17.40;99.90
55203;DHT22;41077;52.956;6.796;2022-08-07T07:58:40;17.50;99.90
55203;DHT22;41077;52.956;6.796;2022-08-07T08:01:08;17.50;99.90
55203;DHT22;41077;52.956;6.796;2022-08-07T08:03:36;17.60;99.90
55203;DHT22;41077;52.956;6.796;2022-08-07T08:06:03;17.70;99.90
55203;DHT22;41077;52.956;6.796;2022-08-07T08:08:32;17.90;99.90
55203;DHT22;41077;52.956;6.796;2022-08-07T08:10:59;18.10;99.90
55203;DHT22;41077;52.956;6.796;2022-08-07T08:13:26;18.00;99.90
55203;DHT22;41077;52.956;6.796;2022-08-07T08:15:54;18.10;99.90
55203;DHT22;41077;52.956;6.796;2022-08-07T08:18:23;18.00;99.90
55203;DHT22;41077;52.956;6.796;2022-08-07T08:20:52;18.00;99.90
55203;DHT22;41077;52.956;6.796;2022-08-07T08:23:18;18.00;99.90
55203;DHT22;41077;52.956;6.796;2022-08-07T08:26:04;18.00;99.90
55203;DHT22;41077;52.956;6.796;2022-08-07T08:28:50;18.00;99.90
55203;DHT22;41077;52.956;6.796;2022-08-07T08:31:23;18.20;99.90
55203;DHT22;41077;52.956;6.796;2022-08-07T08:33:54;18.20;99.90
55203;DHT22;41077;52.956;6.796;2022-08-07T08:36:24;18.40;99.90
55203;DHT22;41077;52.956;6.796;2022-08-07T08:38:50;18.60;99.90
55203;DHT22;41077;52.956;6.796;2022-08-07T08:41:33;18.70;99.90
55203;DHT22;41077;52.956;6.796;2022-08-07T08:52:10;19.00;99.90
55203;DHT22;41077;52.956;6.796;2022-08-07T08:54:46;19.20;99.90
55203;DHT22;41077;52.956;6.796;2022-08-07T08:57:26;19.30;99.90
55203;DHT22;41077;52.956;6.796;2022-08-07T08:59:58;19.30;99.90
55203;DHT22;41077;52.956;6.796;2022-08-07T09:05:39;19.30;99.90
55203;DHT22;41077;52.956;6.796;2022-08-07T09:11:30;19.50;99.90
55203;DHT22;41077;52.956;6.796;2022-08-07T09:23:21;19.90;99.90
55203;DHT22;41077;52.956;6.796;2022-08-07T09:26:17;20.00;99.90
55203;DHT22;41077;52.956;6.796;2022-08-07T09:28:53;20.00;99.90
55203;DHT22;41077;52.956;6.796;2022-08-07T09:34:24;20.20;99.60
55203;DHT22;41077;52.956;6.796;2022-08-07T09:37:19;20.30;99.50
55203;DHT22;41077;52.956;6.796;2022-08-07T09:40:04;20.40;98.90
55203;DHT22;41077;52.956;6.796;2022-08-07T09:45:43;20.50;99.90
55203;DHT22;41077;52.956;6.796;2022-08-07T09:51:14;20.80;97.30
55203;DHT22;41077;52.956;6.796;2022-08-07T09:53:49;20.80;97.40
55203;DHT22;41077;52.956;6.796;2022-08-07T09:59:13;20.70;96.20
55203;DHT22;41077;52.956;6.796;2022-08-07T10:08:03;20.60;96.90
55203;DHT22;41077;52.956;6.796;2022-08-07T10:10:46;20.50;96.70
55203;DHT22;41077;52.956;6.796;2022-08-07T10:19:35;20.00;97.80
55203;DHT22;41077;52.956;6.796;2022-08-07T10:25:18;20.00;96.80
55203;DHT22;41077;52.956;6.796;2022-08-07T10:31:02;20.20;96.90
55203;DHT22;41077;52.956;6.796;2022-08-07T10:33:56;20.40;97.50
55203;DHT22;41077;52.956;6.796;2022-08-07T10:42:10;20.70;95.50
55203;DHT22;41077;52.956;6.796;2022-08-07T10:45:00;20.80;93.30
55203;DHT22;41077;52.956;6.796;2022-08-07T10:50:21;21.20;94.50
55203;DHT22;41077;52.956;6.796;2022-08-07T10:53:08;21.30;95.30
55203;DHT22;41077;52.956;6.796;2022-08-07T11:00:57;21.80;94.20
55203;DHT22;41077;52.956;6.796;2022-08-07T11:03:41;21.90;94.30
55203;DHT22;41077;52.956;6.796;2022-08-07T11:06:22;21.90;93.80
55203;DHT22;41077;52.956;6.796;2022-08-07T11:11:32;21.60;92.00
55203;DHT22;41077;52.956;6.796;2022-08-07T11:14:09;21.60;91.90
55203;DHT22;41077;52.956;6.796;2022-08-07T11:16:57;21.70;91.90
55203;DHT22;41077;52.956;6.796;2022-08-07T11:19:39;21.90;91.40
55203;DHT22;41077;52.956;6.796;2022-08-07T11:22:16;22.20;91.60
55203;DHT22;41077;52.956;6.796;2022-08-07T11:25:15;22.40;91.70
55203;DHT22;41077;52.956;6.796;2022-08-07T11:30:21;22.70;85.50
55203;DHT22;41077;52.956;6.796;2022-08-07T11:33:25;22.70;85.20
55203;DHT22;41077;52.956;6.796;2022-08-07T11:36:15;22.80;82.20
55203;DHT22;41077;52.956;6.796;2022-08-07T11:38:52;23.10;85.30
55203;DHT22;41077;52.956;6.796;2022-08-07T11:41:22;23.50;84.20
55203;DHT22;41077;52.956;6.796;2022-08-07T11:44:08;23.80;80.80
55203;DHT22;41077;52.956;6.796;2022-08-07T11:49:24;24.50;81.10
55203;DHT22;41077;52.956;6.796;2022-08-07T12:00:10;25.00;74.30
55203;DHT22;41077;52.956;6.796;2022-08-07T12:08:37;25.40;71.00
55203;DHT22;41077;52.956;6.796;2022-08-07T12:11:25;25.40;71.00
55203;DHT22;41077;52.956;6.796;2022-08-07T12:14:10;25.50;71.00
55203;DHT22;41077;52.956;6.796;2022-08-07T12:16:45;25.40;71.20
55203;DHT22;41077;52.956;6.796;2022-08-07T12:19:14;25.70;71.30
55203;DHT22;41077;52.956;6.796;2022-08-07T12:22:08;25.90;72.20
55203;DHT22;41077;52.956;6.796;2022-08-07T12:27:41;26.20;65.90
55203;DHT22;41077;52.956;6.796;2022-08-07T12:30:09;26.20;69.20
55203;DHT22;41077;52.956;6.796;2022-08-07T12:32:46;26.30;67.20
55203;DHT22;41077;52.956;6.796;2022-08-07T12:35:15;26.30;65.20
55203;DHT22;41077;52.956;6.796;2022-08-07T12:37:47;26.50;62.40
55203;DHT22;41077;52.956;6.796;2022-08-07T12:40:18;26.50;61.70
55203;DHT22;41077;52.956;6.796;2022-08-07T12:42:45;26.20;62.80
55203;DHT22;41077;52.956;6.796;2022-08-07T12:45:15;26.30;65.50
55203;DHT22;41077;52.956;6.796;2022-08-07T12:48:01;26.30;61.90
55203;DHT22;41077;52.956;6.796;2022-08-07T12:50:52;26.10;60.90
55203;DHT22;41077;52.956;6.796;2022-08-07T12:56:02;25.50;60.50
55203;DHT22;41077;52.956;6.796;2022-08-07T12:58:35;24.90;62.20
55203;DHT22;41077;52.956;6.796;2022-08-07T13:06:36;24.10;62.90
55203;DHT22;41077;52.956;6.796;2022-08-07T13:22:30;23.80;66.20
55203;DHT22;41077;52.956;6.796;2022-08-07T13:25:13;23.80;63.80
55203;DHT22;41077;52.956;6.796;2022-08-07T13:27:52;23.70;65.10
55203;DHT22;41077;52.956;6.796;2022-08-07T13:30:21;23.40;66.30
55203;DHT22;41077;52.956;6.796;2022-08-07T13:33:38;23.20;65.30
55203;DHT22;41077;52.956;6.796;2022-08-07T13:35:47;23.00;66.20
55203;DHT22;41077;52.956;6.796;2022-08-07T13:41:20;22.70;70.00
55203;DHT22;41077;52.956;6.796;2022-08-07T13:43:48;22.60;69.20
55203;DHT22;41077;52.956;6.796;2022-08-07T13:46:16;22.50;69.00
55203;DHT22;41077;52.956;6.796;2022-08-07T13:48:48;22.60;68.00
55203;DHT22;41077;52.956;6.796;2022-08-07T13:51:17;22.60;67.90
55203;DHT22;41077;52.956;6.796;2022-08-07T13:53:52;22.70;65.60
55203;DHT22;41077;52.956;6.796;2022-08-07T13:56:21;22.60;67.90
55203;DHT22;41077;52.956;6.796;2022-08-07T13:58:50;22.50;69.30
55203;DHT22;41077;52.956;6.796;2022-08-07T14:01:35;22.40;68.20
55203;DHT22;41077;52.956;6.796;2022-08-07T14:04:08;22.30;67.50
55203;DHT22;41077;52.956;6.796;2022-08-07T14:06:39;22.20;68.80
55203;DHT22;41077;52.956;6.796;2022-08-07T14:09:21;22.20;69.40
55203;DHT22;41077;52.956;6.796;2022-08-07T14:12:00;22.30;70.30
55203;DHT22;41077;52.956;6.796;2022-08-07T14:14:40;22.30;69.70
55203;DHT22;41077;52.956;6.796;2022-08-07T14:17:09;22.30;69.60
55203;DHT22;41077;52.956;6.796;2022-08-07T14:19:50;22.30;69.80
55203;DHT22;41077;52.956;6.796;2022-08-07T14:22:20;22.40;71.40
55203;DHT22;41077;52.956;6.796;2022-08-07T14:24:49;22.50;69.90
55203;DHT22;41077;52.956;6.796;2022-08-07T14:27:25;22.70;69.10
55203;DHT22;41077;52.956;6.796;2022-08-07T14:29:56;22.80;69.20
55203;DHT22;41077;52.956;6.796;2022-08-07T14:32:23;22.80;68.80
55203;DHT22;41077;52.956;6.796;2022-08-07T14:34:52;22.80;70.20
55203;DHT22;41077;52.956;6.796;2022-08-07T14:37:19;22.70;70.00
55203;DHT22;41077;52.956;6.796;2022-08-07T14:39:47;22.60;70.10
55203;DHT22;41077;52.956;6.796;2022-08-07T14:42:14;22.60;70.00
55203;DHT22;41077;52.956;6.796;2022-08-07T14:44:51;22.60;70.40
55203;DHT22;41077;52.956;6.796;2022-08-07T14:47:17;22.70;70.50
55203;DHT22;41077;52.956;6.796;2022-08-07T14:49:44;22.70;70.00
55203;DHT22;41077;52.956;6.796;2022-08-07T14:52:11;22.60;72.00
55203;DHT22;41077;52.956;6.796;2022-08-07T14:54:39;22.60;73.30
55203;DHT22;41077;52.956;6.796;2022-08-07T14:57:08;22.60;73.00
55203;DHT22;41077;52.956;6.796;2022-08-07T14:59:36;22.60;72.50
55203;DHT22;41077;52.956;6.796;2022-08-07T15:02:13;22.60;72.30
55203;DHT22;41077;52.956;6.796;2022-08-07T15:04:40;22.60;73.30
55203;DHT22;41077;52.956;6.796;2022-08-07T15:07:09;22.50;73.80
55203;DHT22;41077;52.956;6.796;2022-08-07T15:09:42;22.50;73.20
55203;DHT22;41077;52.956;6.796;2022-08-07T15:12:11;22.50;73.90
55203;DHT22;41077;52.956;6.796;2022-08-07T15:14:50;22.40;73.70
55203;DHT22;41077;52.956;6.796;2022-08-07T15:17:20;22.40;73.50
55203;DHT22;41077;52.956;6.796;2022-08-07T15:19:57;22.40;73.20
55203;DHT22;41077;52.956;6.796;2022-08-07T15:22:28;22.30;74.10
55203;DHT22;41077;52.956;6.796;2022-08-07T15:24:54;22.30;74.60
55203;DHT22;41077;52.956;6.796;2022-08-07T15:27:24;22.30;75.60
55203;DHT22;41077;52.956;6.796;2022-08-07T15:29:52;22.30;78.70
55203;DHT22;41077;52.956;6.796;2022-08-07T15:32:20;22.30;79.20
55203;DHT22;41077;52.956;6.796;2022-08-07T15:34:48;22.30;75.80
55203;DHT22;41077;52.956;6.796;2022-08-07T15:37:19;22.50;76.00
55203;DHT22;41077;52.956;6.796;2022-08-07T15:39:57;22.40;76.10
55203;DHT22;41077;52.956;6.796;2022-08-07T15:45:06;22.40;77.00
55203;DHT22;41077;52.956;6.796;2022-08-07T15:47:38;22.30;76.80
55203;DHT22;41077;52.956;6.796;2022-08-07T15:50:11;22.30;76.10
55203;DHT22;41077;52.956;6.796;2022-08-07T15:52:42;22.30;77.90
55203;DHT22;41077;52.956;6.796;2022-08-07T15:55:11;22.20;78.60
55203;DHT22;41077;52.956;6.796;2022-08-07T15:57:43;22.20;78.60
55203;DHT22;41077;52.956;6.796;2022-08-07T16:00:11;22.30;77.70
55203;DHT22;41077;52.956;6.796;2022-08-07T16:02:44;22.30;77.50
55203;DHT22;41077;52.956;6.796;2022-08-07T16:05:16;22.30;77.60
55203;DHT22;41077;52.956;6.796;2022-08-07T16:08:02;22.40;77.50
55203;DHT22;41077;52.956;6.796;2022-08-07T16:10:29;22.40;78.90
55203;DHT22;41077;52.956;6.796;2022-08-07T16:18:48;22.20;79.50
55203;DHT22;41077;52.956;6.796;2022-08-07T16:21:45;22.20;78.30
55203;DHT22;41077;52.956;6.796;2022-08-07T16:24:40;22.10;78.50
55203;DHT22;41077;52.956;6.796;2022-08-07T16:30:04;22.00;78.90
55203;DHT22;41077;52.956;6.796;2022-08-07T16:33:12;22.10;79.70
55203;DHT22;41077;52.956;6.796;2022-08-07T16:36:12;22.30;80.90
55203;DHT22;41077;52.956;6.796;2022-08-07T16:38:48;22.50;82.60
55203;DHT22;41077;52.956;6.796;2022-08-07T16:49:50;24.00;78.10
55203;DHT22;41077;52.956;6.796;2022-08-07T16:55:38;25.60;73.70
55203;DHT22;41077;52.956;6.796;2022-08-07T17:03:50;26.60;68.70
55203;DHT22;41077;52.956;6.796;2022-08-07T17:06:55;26.60;70.40
55203;DHT22;41077;52.956;6.796;2022-08-07T17:15:34;26.50;66.50
55203;DHT22;41077;52.956;6.796;2022-08-07T17:18:18;25.90;68.50
55203;DHT22;41077;52.956;6.796;2022-08-07T17:20:47;25.40;70.60
55203;DHT22;41077;52.956;6.796;2022-08-07T17:26:16;25.40;70.90
55203;DHT22;41077;52.956;6.796;2022-08-07T17:31:20;25.10;73.10
55203;DHT22;41077;52.956;6.796;2022-08-07T17:33:49;24.70;70.80
55203;DHT22;41077;52.956;6.796;2022-08-07T17:36:27;24.20;73.00
55203;DHT22;41077;52.956;6.796;2022-08-07T17:42:04;23.40;76.10
55203;DHT22;41077;52.956;6.796;2022-08-07T17:44:39;23.00;77.20
55203;DHT22;41077;52.956;6.796;2022-08-07T17:49:53;22.50;80.50
55203;DHT22;41077;52.956;6.796;2022-08-07T17:52:45;22.20;80.70
55203;DHT22;41077;52.956;6.796;2022-08-07T17:55:15;22.00;82.00
55203;DHT22;41077;52.956;6.796;2022-08-07T17:58:03;21.80;82.70
55203;DHT22;41077;52.956;6.796;2022-08-07T18:00:34;21.70;84.50
55203;DHT22;41077;52.956;6.796;2022-08-07T18:03:14;21.60;84.50
55203;DHT22;41077;52.956;6.796;2022-08-07T18:06:04;21.60;85.80
55203;DHT22;41077;52.956;6.796;2022-08-07T18:08:35;21.50;85.70
55203;DHT22;41077;52.956;6.796;2022-08-07T18:11:41;21.50;86.50
55203;DHT22;41077;52.956;6.796;2022-08-07T18:19:58;21.20;89.30
55203;DHT22;41077;52.956;6.796;2022-08-07T18:22:31;21.10;89.20
55203;DHT22;41077;52.956;6.796;2022-08-07T18:24:58;21.00;89.50
55203;DHT22;41077;52.956;6.796;2022-08-07T18:27:36;20.90;90.00
55203;DHT22;41077;52.956;6.796;2022-08-07T18:30:08;20.80;90.80
55203;DHT22;41077;52.956;6.796;2022-08-07T18:44:20;20.50;94.60
55203;DHT22;41077;52.956;6.796;2022-08-07T18:47:09;20.40;95.10
55203;DHT22;41077;52.956;6.796;2022-08-07T19:03:41;20.00;98.80
55203;DHT22;41077;52.956;6.796;2022-08-07T19:06:17;19.90;99.60
55203;DHT22;41077;52.956;6.796;2022-08-07T19:11:31;19.70;99.90
55203;DHT22;41077;52.956;6.796;2022-08-07T19:17:05;19.60;99.90
55203;DHT22;41077;52.956;6.796;2022-08-07T19:22:22;19.50;99.90
55203;DHT22;41077;52.956;6.796;2022-08-07T19:24:52;19.50;99.90
55203;DHT22;41077;52.956;6.796;2022-08-07T19:27:20;19.40;99.90